Time;durP1;ratioP1;P1;durP2;ratioP2;P2;SDS_P1;SDS_P2;PMS_P1;PMS_P2;Temp;Humidity;BMP_temperature;BMP_pressure;BME280_temperature;BME280_humidity;BME280_pressure;Samples;Min_cycle;Max_cycle;Signal;HPM_P1;HPM_P2
2024/01/17 00:00:07;;;;;;;0.30;0.30;;;;;;;0.58;74.05;96892.09;5082804;28;20088;-60
2024/01/17 00:02:34;;;;;;;0.20;0.20;;;;;;;1.80;73.48;97076.88;5084233;28;20454;-60
2024/01/17 00:05:01;;;;;;;0.20;0.20;;;;;;;1.67;72.15;97044.19;5084538;28;20048;-60
2024/01/17 00:07:27;;;;;;;0.20;0.20;;;;;;;1.94;70.81;97087.72;5082289;28;20052;-60
2024/01/17 00:09:54;;;;;;;0.20;0.20;;;;;;;1.63;70.60;97095.09;5084119;28;20491;-59
2024/01/17 00:12:21;;;;;;;0.20;0.20;;;;;;;1.72;71.00;97064.00;5083987;28;20048;-60
2024/01/17 00:14:48;;;;;;;0.20;0.20;;;;;;;1.72;70.97;97085.03;5084305;28;20044;-59
2024/01/17 00:17:15;;;;;;;0.20;0.20;;;;;;;1.65;71.39;97084.66;5083638;28;20102;-59
2024/01/17 00:19:42;;;;;;;0.20;0.20;;;;;;;1.58;71.37;97080.44;5083870;28;20231;-60
2024/01/17 00:22:08;;;;;;;0.20;0.20;;;;;;;1.69;70.81;97074.72;5083276;28;20075;-59
2024/01/17 00:24:35;;;;;;;0.20;0.20;;;;;;;1.80;70.77;97076.06;5083905;28;20090;-58
2024/01/17 00:27:04;;;;;;;0.20;0.20;;;;;;;1.78;69.93;97072.84;5081876;28;20052;-59
2024/01/17 00:29:31;;;;;;;0.20;0.20;;;;;;;1.87;69.03;97079.16;5083624;28;20059;-58
2024/01/17 00:31:58;;;;;;;0.20;0.20;;;;;;;1.61;69.40;97068.09;5082195;28;20055;-59
2024/01/17 00:34:25;;;;;;;0.20;0.20;;;;;;;1.62;69.66;97080.63;5083837;28;20084;-61
2024/01/17 00:36:52;;;;;;;0.20;0.20;;;;;;;1.11;70.15;96982.88;5085623;28;20056;-61
2024/01/17 00:39:19;;;;;;;0.20;0.20;;;;;;;0.45;69.85;96892.97;5087671;28;20052;-60
2024/01/17 00:41:45;;;;;;;0.20;0.20;;;;;;;1.49;70.71;97065.13;5087317;28;20047;-61
2024/01/17 00:44:16;;;;;;;0.20;0.20;;;;;;;1.49;70.37;97071.41;5069565;28;20048;-60
2024/01/17 00:46:43;;;;;;;0.20;0.20;;;;;;;1.51;70.55;97074.63;5081900;28;20460;-61
2024/01/17 00:49:11;;;;;;;0.20;0.20;;;;;;;1.48;70.67;97080.72;5067430;28;20239;-60
2024/01/17 00:51:38;;;;;;;0.20;0.20;;;;;;;1.63;70.16;97089.63;5065830;28;20052;-60
2024/01/17 00:54:05;;;;;;;0.20;0.20;;;;;;;0.80;70.09;96964.88;5082895;28;20048;-60
2024/01/17 00:56:34;;;;;;;0.20;0.20;;;;;;;0.85;70.54;96951.94;5067397;28;20056;-60
2024/01/17 00:59:00;;;;;;;0.20;0.20;;;;;;;1.65;70.51;97084.66;5067392;28;20086;-60
2024/01/17 01:01:27;;;;;;;0.20;0.20;;;;;;;1.62;70.31;97080.63;5082589;28;20053;-61
2024/01/17 01:03:54;;;;;;;0.20;0.20;;;;;;;1.55;70.51;97070.16;5067442;28;20135;-59
2024/01/17 01:06:21;;;;;;;0.20;0.20;;;;;;;1.37;70.32;97073.91;5067522;28;20049;-60
2024/01/17 01:08:48;;;;;;;0.20;0.20;;;;;;;1.30;70.72;97068.06;5067175;28;20056;-60
2024/01/17 01:11:15;;;;;;;0.20;0.20;;;;;;;1.27;70.16;97068.69;5067076;28;20057;-59
2024/01/17 01:13:42;;;;;;;0.20;0.20;;;;;;;1.21;70.72;97101.84;5066678;28;20049;-62
2024/01/17 01:16:10;;;;;;;0.20;0.20;;;;;;;1.18;70.50;97075.19;5066799;28;20056;-60
2024/01/17 01:18:37;;;;;;;0.20;0.20;;;;;;;1.11;70.33;97074.81;5067047;28;20044;-60
2024/01/17 01:21:04;;;;;;;0.20;0.20;;;;;;;1.09;71.50;97087.97;5066551;28;20182;-59
2024/01/17 01:23:31;;;;;;;0.20;0.20;;;;;;;1.00;71.71;97084.34;5066584;28;20455;-59
2024/01/17 01:25:57;;;;;;;0.20;0.20;;;;;;;1.07;71.26;97085.53;5081877;28;20473;-60
2024/01/17 01:28:24;;;;;;;0.20;0.20;;;;;;;0.97;71.54;97074.03;5066458;28;20099;-59
2024/01/17 01:30:51;;;;;;;0.20;0.20;;;;;;;0.96;72.28;97084.16;5066429;28;20502;-60
2024/01/17 01:33:18;;;;;;;0.20;0.20;;;;;;;1.02;72.01;97088.38;5066742;28;20314;-59
2024/01/17 01:35:45;;;;;;;0.20;0.20;;;;;;;1.11;71.14;97091.97;5084943;28;20055;-61
2024/01/17 01:38:12;;;;;;;0.20;0.20;;;;;;;1.04;71.14;97097.03;5086788;28;20155;-62
2024/01/17 01:40:39;;;;;;;0.20;0.20;;;;;;;0.47;71.35;97037.84;5084986;28;20579;-60
2024/01/17 01:43:23;;;;;;;0.20;0.20;;;;;;;0.98;71.80;97083.84;5086748;28;20135;-59
2024/01/17 01:46:20;;;;;;;0.20;0.20;;;;;;;1.09;72.40;97077.84;5086118;28;20048;-60
2024/01/17 01:48:49;;;;;;;0.20;0.20;;;;;;;1.17;72.19;97079.81;5086516;28;20063;-60
2024/01/17 01:51:17;;;;;;;0.20;0.20;;;;;;;1.25;71.78;97075.53;5086457;28;20048;-59
2024/01/17 01:53:47;;;;;;;0.20;0.20;;;;;;;0.40;71.54;96955.72;5086710;28;20245;-60
2024/01/17 01:56:19;;;;;;;0.20;0.20;;;;;;;1.15;71.20;97071.16;5086448;28;20121;-59
2024/01/17 01:58:48;;;;;;;0.20;0.20;;;;;;;1.18;71.49;97070.56;5084806;28;20048;-60
2024/01/17 02:01:16;;;;;;;0.20;0.20;;;;;;;1.16;71.84;97056.41;5086476;28;20059;-59
2024/01/17 02:03:44;;;;;;;0.20;0.20;;;;;;;1.15;71.74;97063.00;5084612;28;20513;-59
2024/01/17 02:06:17;;;;;;;0.20;0.20;;;;;;;1.16;71.66;97067.31;5085892;28;20052;-60
2024/01/17 02:08:45;;;;;;;0.20;0.20;;;;;;;1.13;72.63;97062.47;5086026;28;20577;-59
2024/01/17 02:11:13;;;;;;;0.20;0.20;;;;;;;1.07;73.05;97063.72;5086141;28;20139;-60
2024/01/17 02:13:40;;;;;;;0.22;0.22;;;;;;;0.97;72.47;97041.31;5086365;28;20043;-59
2024/01/17 02:16:07;;;;;;;0.20;0.20;;;;;;;0.96;73.13;97067.81;5086132;28;20313;-59
2024/01/17 02:18:34;;;;;;;0.20;0.20;;;;;;;1.00;72.33;97074.25;5085951;28;20275;-62
2024/01/17 02:21:01;;;;;;;0.20;0.20;;;;;;;0.22;73.15;96981.22;5084574;28;20055;-62
2024/01/17 02:23:28;;;;;;;0.20;0.20;;;;;;;0.54;73.76;97049.13;5085189;28;20518;-62
2024/01/17 02:25:57;;;;;;;0.20;0.20;;;;;;;0.63;74.81;97058.22;5085694;28;20052;-59
2024/01/17 02:28:29;;;;;;;0.20;0.20;;;;;;;0.70;74.34;97050.41;5085758;28;20052;-60
2024/01/17 02:30:57;;;;;;;0.20;0.20;;;;;;;0.00;74.24;96970.25;5084682;28;20060;-60
2024/01/17 02:33:25;;;;;;;0.20;0.20;;;;;;;0.21;73.92;97012.25;5085615;28;20052;-59
2024/01/17 02:35:52;;;;;;;0.20;0.20;;;;;;;0.54;73.76;97060.03;5084021;28;20438;-59
2024/01/17 02:38:19;;;;;;;0.20;0.20;;;;;;;0.25;74.65;97067.75;5085539;28;20056;-59
2024/01/17 02:40:45;;;;;;;0.20;0.20;;;;;;;0.12;76.05;97074.00;5085062;28;20052;-59
2024/01/17 02:43:12;;;;;;;0.20;0.20;;;;;;;-0.90;76.31;96925.81;5083869;28;20585;-59
2024/01/17 02:45:39;;;;;;;0.20;0.20;;;;;;;0.14;76.52;97066.34;5084161;28;20371;-59
2024/01/17 02:48:06;;;;;;;0.20;0.20;;;;;;;0.08;77.13;97067.53;5083939;28;20155;-59
2024/01/17 02:50:33;;;;;;;0.20;0.20;;;;;;;-0.45;76.54;97025.59;5084934;28;20091;-60
2024/01/17 02:53:00;;;;;;;0.20;0.20;;;;;;;0.11;76.14;97055.25;5085027;28;20123;-60
2024/01/17 02:55:27;;;;;;;0.20;0.20;;;;;;;-0.08;76.87;97033.59;5083762;28;20071;-60
2024/01/17 02:57:54;;;;;;;0.20;0.20;;;;;;;0.09;75.72;97058.28;5082705;28;20048;-61
2024/01/17 03:00:21;;;;;;;0.20;0.20;;;;;;;-0.03;76.47;97057.97;5083514;28;20048;-59
2024/01/17 03:02:49;;;;;;;0.20;0.20;;;;;;;-0.01;75.73;97063.91;5085199;28;20112;-60
2024/01/17 03:05:16;;;;;;;0.20;0.20;;;;;;;-0.05;74.82;97060.19;5083838;28;20052;-60
2024/01/17 03:07:43;;;;;;;0.20;0.20;;;;;;;-0.53;76.37;97007.22;5085065;28;20147;-59
2024/01/17 03:10:12;;;;;;;0.20;0.20;;;;;;;-0.32;77.01;97068.34;5084847;28;20063;-59
2024/01/17 03:12:40;;;;;;;0.20;0.20;;;;;;;-0.38;78.33;97064.09;5084663;28;20052;-59
2024/01/17 03:15:10;;;;;;;0.20;0.20;;;;;;;-0.34;79.22;97059.66;5083639;28;20556;-58
2024/01/17 03:17:38;;;;;;;0.20;0.20;;;;;;;-0.77;78.15;97047.38;5083171;28;20075;-60
2024/01/17 03:20:06;;;;;;;0.20;0.20;;;;;;;-0.67;77.36;96984.66;5084744;28;20062;-59
2024/01/17 03:22:33;;;;;;;0.20;0.20;;;;;;;-0.30;77.17;97038.91;5084497;28;20063;-59
2024/01/17 03:25:00;;;;;;;0.15;0.15;;;;;;;-0.49;78.02;97043.63;5084664;28;20055;-59
2024/01/17 03:27:27;;;;;;;0.13;0.13;;;;;;;-0.45;78.92;97063.66;5084587;28;20577;-59
2024/01/17 03:29:54;;;;;;;0.20;0.20;;;;;;;-0.60;80.05;97028.59;5083092;28;20514;-59
2024/01/17 03:32:21;;;;;;;0.20;0.20;;;;;;;-0.88;79.30;96997.81;5083117;28;20568;-59
2024/01/17 03:34:48;;;;;;;0.20;0.20;;;;;;;-0.45;78.50;97055.50;5084650;28;20044;-59
2024/01/17 03:37:14;;;;;;;0.20;0.20;;;;;;;-0.46;77.52;97056.63;5084414;28;20079;-61
2024/01/17 03:39:44;;;;;;;0.20;0.20;;;;;;;-1.04;77.56;96974.72;5083087;28;20135;-59
2024/01/17 03:42:15;;;;;;;0.20;0.20;;;;;;;-0.71;78.23;97054.34;5084341;28;20088;-59
2024/01/17 03:44:46;;;;;;;0.20;0.20;;;;;;;-1.22;79.02;96988.34;5084239;28;20056;-59
2024/01/17 03:47:12;;;;;;;0.20;0.20;;;;;;;-0.82;79.06;97071.94;5084386;28;20056;-60
2024/01/17 03:49:39;;;;;;;0.20;0.20;;;;;;;-0.74;79.14;97082.13;5084153;28;20052;-60
2024/01/17 03:52:10;;;;;;;0.20;0.20;;;;;;;-0.68;78.10;97070.06;5083899;28;20048;-60
2024/01/17 03:54:36;;;;;;;0.20;0.20;;;;;;;-0.67;78.37;97067.06;5084493;28;20067;-60
2024/01/17 03:57:04;;;;;;;0.20;0.20;;;;;;;-1.06;78.10;97008.72;5083678;28;20144;-59
2024/01/17 03:59:32;;;;;;;0.20;0.20;;;;;;;-0.67;78.50;97071.69;5082785;28;20059;-61
2024/01/17 04:01:58;;;;;;;0.20;0.20;;;;;;;-0.89;79.26;97066.06;5083781;28;20052;-62
2024/01/17 04:04:26;;;;;;;0.20;0.20;;;;;;;-1.17;79.57;97016.22;5082600;28;20127;-59
2024/01/17 04:06:53;;;;;;;0.20;0.20;;;;;;;-0.66;78.21;97084.16;5082877;28;20070;-59
2024/01/17 04:09:20;;;;;;;0.20;0.20;;;;;;;-0.66;78.47;97081.44;5083955;28;20050;-60
2024/01/17 04:11:47;;;;;;;0.20;0.20;;;;;;;-0.68;78.92;97083.66;5083751;28;20059;-60
2024/01/17 04:14:14;;;;;;;0.20;0.20;;;;;;;-0.64;77.65;97092.84;5083875;28;20505;-62
2024/01/17 04:16:41;;;;;;;0.20;0.20;;;;;;;-0.75;78.11;97107.69;5084115;28;20158;-60
2024/01/17 04:19:08;;;;;;;0.20;0.20;;;;;;;-1.64;78.67;96949.34;5083961;28;20052;-60
2024/01/17 04:21:36;;;;;;;0.20;0.20;;;;;;;-0.75;78.37;97118.56;5084220;28;20058;-60
2024/01/17 04:24:03;;;;;;;0.20;0.20;;;;;;;-0.88;78.66;97108.44;5084185;28;20471;-60
2024/01/17 04:26:30;;;;;;;0.20;0.20;;;;;;;-0.78;78.58;97113.75;5082454;28;20125;-59
2024/01/17 04:28:57;;;;;;;0.20;0.20;;;;;;;-1.01;78.49;97093.69;5084294;28;20127;-62
2024/01/17 04:31:29;;;;;;;0.20;0.20;;;;;;;-0.82;78.59;97118.16;5082101;28;20125;-61
2024/01/17 04:33:58;;;;;;;0.20;0.20;;;;;;;-0.88;78.71;97119.31;5084139;28;20051;-60
2024/01/17 04:36:29;;;;;;;0.20;0.20;;;;;;;-0.88;79.07;97113.88;5083163;28;20056;-59
2024/01/17 04:38:56;;;;;;;0.20;0.20;;;;;;;-0.98;79.11;97119.50;5083372;28;20105;-59
2024/01/17 04:41:23;;;;;;;0.20;0.20;;;;;;;-1.00;79.80;97133.38;5082102;28;20737;-59
2024/01/17 04:43:50;;;;;;;0.20;0.20;;;;;;;-0.97;79.08;97112.94;5083568;28;20581;-59
2024/01/17 04:46:17;;;;;;;0.20;0.20;;;;;;;-0.96;78.53;97141.72;5082175;28;20056;-59
2024/01/17 04:48:45;;;;;;;0.20;0.20;;;;;;;-1.45;77.13;97125.84;5083355;28;20048;-60
2024/01/17 04:51:13;;;;;;;0.20;0.20;;;;;;;-1.15;78.13;97108.31;5081552;28;20159;-59
2024/01/17 04:53:44;;;;;;;0.20;0.20;;;;;;;-1.03;78.29;97119.56;5083733;28;20054;-59
2024/01/17 04:56:13;;;;;;;0.20;0.20;;;;;;;-1.24;78.11;97093.78;5083473;28;20044;-59
2024/01/17 04:58:40;;;;;;;0.20;0.20;;;;;;;-1.08;78.97;97127.78;5082169;28;20055;-59
2024/01/17 05:01:08;;;;;;;0.20;0.20;;;;;;;-1.62;80.49;97088.34;5083443;28;20067;-59
2024/01/17 05:03:35;;;;;;;0.20;0.20;;;;;;;-1.09;79.64;97140.56;5083170;28;20058;-59
2024/01/17 05:06:05;;;;;;;0.20;0.20;;;;;;;-1.13;80.43;97133.28;5081931;28;20074;-58
2024/01/17 05:08:31;;;;;;;0.20;0.20;;;;;;;-1.10;79.99;97132.69;5083653;28;20056;-59
2024/01/17 05:10:58;;;;;;;0.20;0.20;;;;;;;-1.06;80.35;97131.03;5081584;28;20088;-59
2024/01/17 05:13:25;;;;;;;0.20;0.20;;;;;;;-1.03;79.66;97138.59;5083580;28;20391;-58
2024/01/17 05:15:52;;;;;;;0.20;0.20;;;;;;;-1.00;79.62;97140.72;5081713;28;20402;-59
2024/01/17 05:18:18;;;;;;;0.20;0.20;;;;;;;-0.99;79.35;97150.47;5083511;28;20062;-60
2024/01/17 05:20:47;;;;;;;0.20;0.20;;;;;;;-0.94;78.78;97144.97;5083082;28;20576;-59
2024/01/17 05:23:14;;;;;;;0.20;0.20;;;;;;;-0.90;78.48;97148.72;5087516;28;20052;-58
2024/01/17 05:25:41;;;;;;;0.20;0.20;;;;;;;-1.23;78.92;97100.84;5086552;28;20047;-58
2024/01/17 05:28:07;;;;;;;0.20;0.20;;;;;;;-0.83;78.17;97151.88;5085519;28;20052;-59
2024/01/17 05:30:34;;;;;;;0.20;0.20;;;;;;;-0.93;78.37;97122.16;5086856;28;20052;-60
2024/01/17 05:33:01;;;;;;;0.20;0.20;;;;;;;-1.37;78.41;97029.31;5085651;28;20060;-60
2024/01/17 05:35:29;;;;;;;0.20;0.20;;;;;;;-0.55;78.64;97150.88;5085460;28;20071;-60
2024/01/17 05:37:56;;;;;;;0.20;0.20;;;;;;;-0.52;78.27;97156.53;5085374;28;20084;-61
2024/01/17 05:40:23;;;;;;;0.20;0.20;;;;;;;-0.45;77.91;97161.59;5085307;28;20056;-60
2024/01/17 05:42:50;;;;;;;0.20;0.20;;;;;;;-0.43;77.23;97175.72;5086519;28;20364;-60
2024/01/17 05:45:17;;;;;;;0.20;0.20;;;;;;;-1.88;77.60;96931.53;5086927;28;20102;-60
2024/01/17 05:47:44;;;;;;;0.20;0.20;;;;;;;-0.62;77.07;97134.16;5084814;28;20040;-61
2024/01/17 05:50:14;;;;;;;0.20;0.20;;;;;;;-0.16;76.91;97181.25;5085972;28;20481;-61
2024/01/17 05:52:42;;;;;;;0.20;0.20;;;;;;;-0.03;76.60;97173.09;5086164;28;20130;-61
2024/01/17 05:55:10;;;;;;;0.20;0.20;;;;;;;-0.02;76.13;97176.66;5086064;28;20052;-61
2024/01/17 05:57:37;;;;;;;0.25;0.25;;;;;;;-0.49;76.41;97106.19;5086204;28;20496;-61
2024/01/17 06:00:08;;;;;;;0.20;0.20;;;;;;;0.03;76.56;97171.13;5086501;28;20044;-60
2024/01/17 06:02:39;;;;;;;0.20;0.20;;;;;;;0.09;76.66;97175.34;5086292;28;20426;-60
2024/01/17 06:05:09;;;;;;;0.20;0.20;;;;;;;-0.50;75.79;97072.72;5086587;28;20125;-60
2024/01/17 06:07:38;;;;;;;0.20;0.20;;;;;;;-0.25;75.76;97128.59;5086359;28;20413;-59
2024/01/17 06:10:05;;;;;;;0.20;0.20;;;;;;;0.21;75.15;97181.13;5086111;28;20321;-59
2024/01/17 06:12:32;;;;;;;0.20;0.20;;;;;;;0.10;75.55;97179.69;5084816;28;20068;-60
2024/01/17 06:14:58;;;;;;;0.30;0.30;;;;;;;0.22;76.13;97171.84;5086030;28;20058;-61
2024/01/17 06:17:26;;;;;;;0.20;0.20;;;;;;;0.31;76.08;97186.38;5085884;28;20494;-60
2024/01/17 06:19:53;;;;;;;0.20;0.20;;;;;;;0.38;74.88;97181.31;5085845;28;20052;-60
2024/01/17 06:22:20;;;;;;;0.20;0.20;;;;;;;-0.02;75.01;97130.38;5086126;28;20060;-61
2024/01/17 06:24:47;;;;;;;0.20;0.20;;;;;;;0.48;74.56;97192.03;5085900;28;20048;-60
2024/01/17 06:27:15;;;;;;;0.20;0.20;;;;;;;0.63;74.72;97178.13;5085512;28;20117;-58
2024/01/17 06:29:42;;;;;;;0.20;0.20;;;;;;;0.67;74.67;97200.09;5085937;28;20052;-59
2024/01/17 06:32:10;;;;;;;0.20;0.20;;;;;;;0.69;74.83;97182.34;5085294;28;20544;-59
2024/01/17 06:34:37;;;;;;;0.20;0.20;;;;;;;0.19;74.63;97107.06;5084214;28;20055;-59
2024/01/17 06:37:04;;;;;;;0.20;0.20;;;;;;;0.72;74.18;97181.75;5083766;28;20054;-61
2024/01/17 06:39:32;;;;;;;0.20;0.20;;;;;;;0.81;73.63;97179.91;5083650;28;20523;-62
2024/01/17 06:41:59;;;;;;;0.20;0.20;;;;;;;0.15;72.71;97072.56;5084526;28;20673;-59
2024/01/17 06:44:27;;;;;;;0.20;0.20;;;;;;;0.72;73.07;97162.66;5089545;27;20043;-58
2024/01/17 06:46:55;;;;;;;0.20;0.20;;;;;;;0.57;73.39;97145.81;5082346;28;20048;-61
2024/01/17 06:49:22;;;;;;;0.20;0.20;;;;;;;1.01;74.60;97204.00;5081832;28;20064;-61
2024/01/17 06:51:50;;;;;;;0.20;0.20;;;;;;;0.83;74.39;97155.06;5082372;28;20040;-62
2024/01/17 06:54:16;;;;;;;0.20;0.20;;;;;;;1.36;73.26;97203.25;5084233;28;20060;-65
2024/01/17 06:56:44;;;;;;;0.25;0.25;;;;;;;1.05;73.58;97139.59;5084144;28;20420;-62
2024/01/17 06:59:11;;;;;;;0.20;0.20;;;;;;;1.67;72.49;97213.44;5082811;28;20068;-60
2024/01/17 07:01:39;;;;;;;0.22;0.22;;;;;;;1.67;72.32;97184.25;5084577;28;20062;-63
2024/01/17 07:04:07;;;;;;;0.20;0.20;;;;;;;0.03;71.26;96876.28;5083144;28;20087;-66
2024/01/17 07:06:34;;;;;;;0.20;0.20;;;;;;;2.14;70.15;97190.97;5080806;28;20056;-63
2024/01/17 07:09:02;;;;;;;0.30;0.30;;;;;;;2.18;69.39;97197.44;5074864;28;20048;-60
2024/01/17 07:11:28;;;;;;;0.20;0.20;;;;;;;1.70;68.77;97131.75;5062988;28;20080;-61
2024/01/17 07:13:55;;;;;;;0.20;0.20;;;;;;;2.32;69.05;97192.69;5080385;28;20051;-62
2024/01/17 07:16:22;;;;;;;0.20;0.20;;;;;;;2.50;68.84;97188.91;5083453;28;20060;-58
2024/01/17 07:18:49;;;;;;;0.20;0.20;;;;;;;2.61;68.88;97190.22;5066793;28;20131;-61
2024/01/17 07:21:17;;;;;;;0.20;0.20;;;;;;;2.79;67.84;97186.44;5067067;28;20130;-64
2024/01/17 07:23:44;;;;;;;0.20;0.20;;;;;;;1.88;67.48;97028.88;5082939;28;20067;-66
2024/01/17 07:26:11;;;;;;;0.20;0.20;;;;;;;3.10;67.89;97193.44;5075336;28;20060;-63
2024/01/17 07:28:38;;;;;;;0.20;0.20;;;;;;;2.27;66.50;97007.00;5063754;28;20053;-65
2024/01/17 07:31:05;;;;;;;0.20;0.20;;;;;;;3.46;65.57;97182.25;5063563;28;20060;-66
2024/01/17 07:33:33;;;;;;;0.30;0.30;;;;;;;3.34;64.65;97182.06;5061981;28;20139;-61
2024/01/17 07:36:00;;;;;;;0.20;0.20;;;;;;;3.57;64.48;97178.06;5066096;28;20086;-58
2024/01/17 07:38:27;;;;;;;0.20;0.20;;;;;;;3.78;63.03;97180.97;5079743;28;20052;-60
2024/01/17 07:40:54;;;;;;;0.30;0.30;;;;;;;3.98;62.05;97192.03;5082038;28;20525;-59
2024/01/17 07:43:21;;;;;;;0.28;0.28;;;;;;;3.83;61.44;97189.81;5068653;28;20053;-62
2024/01/17 07:45:50;;;;;;;0.20;0.20;;;;;;;3.30;62.14;97098.97;5062145;28;20201;-65
2024/01/17 07:48:17;;;;;;;0.30;0.30;;;;;;;4.07;62.49;97168.19;5073041;28;20055;-57
2024/01/17 07:50:45;;;;;;;0.30;0.30;;;;;;;3.49;60.95;97052.91;5063631;28;20064;-65
2024/01/17 07:53:11;;;;;;;0.30;0.30;;;;;;;4.36;61.23;97154.53;5079268;28;20117;-61
2024/01/17 07:55:39;;;;;;;0.30;0.30;;;;;;;4.55;60.74;97165.16;5083863;28;20457;-65
2024/01/17 07:58:06;;;;;;;0.30;0.30;;;;;;;4.29;61.00;97143.28;5071890;28;20064;-66
2024/01/17 08:00:33;;;;;;;0.30;0.30;;;;;;;4.43;59.53;97127.44;5065628;28;20048;-69
2024/01/17 08:03:00;;;;;;;0.30;0.30;;;;;;;2.31;59.35;96792.13;5082514;28;20720;-65
2024/01/17 08:05:27;;;;;;;0.30;0.30;;;;;;;4.84;59.12;97159.66;5083312;28;20044;-63
2024/01/17 08:07:54;;;;;;;0.30;0.30;;;;;;;3.78;58.53;96995.47;5083718;28;20581;-68
2024/01/17 08:10:21;;;;;;;0.30;0.30;;;;;;;5.06;58.72;97150.38;5083570;28;20190;-62
2024/01/17 08:12:48;;;;;;;0.30;0.30;;;;;;;5.29;59.07;97151.66;5070787;28;20059;-62
2024/01/17 08:15:15;;;;;;;0.30;0.30;;;;;;;5.56;58.13;97146.47;5063581;28;20052;-63
2024/01/17 08:17:43;;;;;;;0.30;0.30;;;;;;;4.72;56.93;96977.69;5078827;28;20056;-66
2024/01/17 08:20:12;;;;;;;0.30;0.30;;;;;;;5.97;56.06;97142.88;5083518;28;20394;-57
2024/01/17 08:22:40;;;;;;;0.30;0.30;;;;;;;5.16;56.39;97073.09;5083086;28;20043;-65
2024/01/17 08:25:07;;;;;;;0.30;0.30;;;;;;;6.13;55.47;97163.09;5082982;28;20108;-67
2024/01/17 08:27:38;;;;;;;0.30;0.30;;;;;;;5.83;55.32;97154.16;5082648;28;20073;-67
2024/01/17 08:30:09;;;;;;;0.30;0.30;;;;;;;6.26;55.08;97161.97;5078023;28;20079;-66
2024/01/17 08:32:37;;;;;;;0.30;0.30;;;;;;;5.72;54.67;97054.00;5080559;28;20052;-66
2024/01/17 08:35:05;;;;;;;0.30;0.30;;;;;;;6.45;55.53;97132.00;5069797;28;20076;-62
2024/01/17 08:37:34;;;;;;;0.40;0.40;;;;;;;6.68;54.30;97140.63;5065695;28;20444;-61
2024/01/17 08:40:00;;;;;;;0.40;0.40;;;;;;;6.26;54.44;97100.69;5078914;28;20048;-59
2024/01/17 08:42:27;;;;;;;0.30;0.30;;;;;;;5.36;55.00;97012.66;5078423;28;20055;-60
2024/01/17 08:44:54;;;;;;;0.30;0.30;;;;;;;5.74;56.72;97150.66;5077339;28;20499;-64
2024/01/17 08:47:21;;;;;;;0.30;0.30;;;;;;;6.08;55.80;97172.38;5071300;28;20048;-65
2024/01/17 08:49:49;;;;;;;0.32;0.32;;;;;;;6.45;55.24;97143.00;5082974;28;20048;-63
2024/01/17 08:52:16;;;;;;;0.30;0.30;;;;;;;6.55;54.68;97142.56;5081379;28;20060;-61
2024/01/17 08:54:43;;;;;;;0.30;0.30;;;;;;;5.62;54.50;97092.09;5083038;28;20048;-64
2024/01/17 08:57:10;;;;;;;0.30;0.30;;;;;;;5.51;55.39;97107.38;5080150;28;20048;-68
2024/01/17 08:59:36;;;;;;;0.40;0.40;;;;;;;6.06;53.70;97116.09;5085350;28;20051;-67
2024/01/17 09:02:03;;;;;;;0.30;0.30;;;;;;;6.35;53.89;97087.63;5083655;28;20159;-64
2024/01/17 09:04:31;;;;;;;0.30;0.30;;;;;;;6.73;52.81;97149.47;5065526;28;20044;-67
2024/01/17 09:06:58;;;;;;;0.40;0.40;;;;;;;7.03;51.77;97068.25;5077038;28;20056;-71
2024/01/17 09:09:26;;;;;;;0.40;0.40;;;;;;;7.08;51.57;97018.41;5065799;28;20064;-68
2024/01/17 09:11:53;;;;;;;0.40;0.40;;;;;;;7.67;50.35;97092.97;5085566;28;20160;-65
2024/01/17 09:14:21;;;;;;;0.40;0.40;;;;;;;7.50;51.43;97052.75;5079209;28;20117;-64
2024/01/17 09:16:52;;;;;;;0.40;0.40;;;;;;;8.23;50.91;97124.13;5066590;28;20063;-64
2024/01/17 09:19:22;;;;;;;0.50;0.50;;;;;;;6.46;50.63;96825.47;5075873;28;20044;-70
2024/01/17 09:21:52;;;;;;;0.40;0.40;;;;;;;8.57;50.26;97124.25;5085319;28;20700;-61
2024/01/17 09:24:20;;;;;;;0.50;0.50;;;;;;;8.74;50.24;97190.19;5083013;28;20040;-66
2024/01/17 09:26:51;;;;;;;0.40;0.40;;;;;;;8.86;50.93;97137.66;5082103;28;20615;-62
2024/01/17 09:29:19;;;;;;;0.40;0.40;;;;;;;8.21;51.68;97010.53;5075592;28;20407;-68
2024/01/17 09:31:47;;;;;;;0.40;0.40;;;;;;;8.94;51.78;97111.81;5074501;28;20135;-63
2024/01/17 09:34:15;;;;;;;0.40;0.40;;;;;;;9.13;52.22;97113.81;5077273;28;20052;-61
2024/01/17 09:36:42;;;;;;;0.50;0.50;;;;;;;9.15;51.42;97105.97;5085716;28;20064;-68
2024/01/17 09:39:09;;;;;;;0.40;0.40;;;;;;;9.28;51.54;97104.69;5069233;28;20578;-65
2024/01/17 09:41:36;;;;;;;0.40;0.40;;;;;;;9.36;52.05;97100.13;5065185;28;20053;-69
2024/01/17 09:44:03;;;;;;;0.50;0.50;;;;;;;9.56;51.38;97091.50;5064724;28;20044;-66
2024/01/17 09:46:34;;;;;;;0.45;0.45;;;;;;;9.80;51.15;97093.19;5068024;28;20036;-70
2024/01/17 09:49:02;;;;;;;0.57;0.57;;;;;;;9.19;50.87;96985.25;5085647;28;20048;-66
2024/01/17 09:51:32;;;;;;;0.50;0.50;;;;;;;9.51;51.43;97046.75;5078196;28;20131;-66
2024/01/17 09:54:04;;;;;;;0.50;0.50;;;;;;;8.17;54.61;96993.88;5067415;28;20040;-72
2024/01/17 09:56:33;;;;;;;0.50;0.50;;;;;;;8.60;53.83;97001.28;5064492;28;20076;-70
2024/01/17 09:59:16;;;;;;;0.50;0.50;;;;;;;9.74;53.14;97056.72;5064372;28;20044;-70
2024/01/17 10:01:44;;;;;;;0.50;0.50;;;;;;;9.45;53.10;96999.25;5085460;28;20063;-62
2024/01/17 10:04:13;;;;;;;0.50;0.50;;;;;;;9.67;52.84;96995.72;5082145;28;20087;-64
2024/01/17 10:06:42;;;;;;;0.50;0.50;;;;;;;9.85;52.19;96996.84;5085058;28;20075;-61
2024/01/17 10:09:10;;;;;;;0.47;0.47;;;;;;;9.71;51.94;97040.84;5067057;28;20503;-65
2024/01/17 10:11:38;;;;;;;0.40;0.40;;;;;;;10.01;51.44;97049.31;5080735;28;20109;-63
2024/01/17 10:14:05;;;;;;;0.47;0.47;;;;;;;9.67;50.50;96945.97;5086199;28;20169;-68
2024/01/17 10:16:32;;;;;;;0.50;0.50;;;;;;;9.89;49.18;97008.81;5085254;28;20064;-64
2024/01/17 10:19:00;;;;;;;0.50;0.50;;;;;;;10.82;48.97;97045.25;5085878;28;20060;-63
2024/01/17 10:21:31;;;;;;;0.50;0.50;;;;;;;10.84;48.38;97015.22;5085695;28;20043;-66
2024/01/17 10:23:58;;;;;;;0.50;0.50;;;;;;;10.51;47.51;96954.94;5084181;28;20116;-62
2024/01/17 10:26:25;;;;;;;0.50;0.50;;;;;;;8.91;47.05;96686.34;5083948;28;20060;-65
2024/01/17 10:28:52;;;;;;;0.50;0.50;;;;;;;10.24;47.11;96873.81;5085534;28;20066;-67
2024/01/17 10:31:22;;;;;;;0.50;0.50;;;;;;;10.73;46.80;96943.81;5085300;28;20063;-66
2024/01/17 10:33:50;;;;;;;0.50;0.50;;;;;;;10.85;46.19;97016.78;5085392;28;20044;-68
2024/01/17 10:36:18;;;;;;;0.50;0.50;;;;;;;11.12;46.17;96988.72;5084842;28;20536;-68
2024/01/17 10:38:46;;;;;;;0.50;0.50;;;;;;;11.18;46.22;96980.84;5084076;28;20104;-63
2024/01/17 10:41:13;;;;;;;0.50;0.50;;;;;;;11.06;46.48;96933.97;5085189;28;20052;-64
2024/01/17 10:43:54;;;;;;;0.60;0.60;;;;;;;11.65;46.35;96986.66;5073092;28;20136;-65
2024/01/17 10:46:22;;;;;;;0.50;0.50;;;;;;;11.54;45.74;96966.28;5064334;28;20044;-69
2024/01/17 10:48:50;;;;;;;0.57;0.57;;;;;;;11.38;46.45;96962.91;5081805;28;20071;-65
2024/01/17 10:51:22;;;;;;;0.50;0.50;;;;;;;11.43;46.27;96920.97;5084660;28;20106;-66
2024/01/17 10:53:54;;;;;;;0.60;0.60;;;;;;;11.85;45.93;96938.91;5085353;28;20062;-66
2024/01/17 10:56:24;;;;;;;0.50;0.50;;;;;;;12.00;45.47;96937.88;5084341;28;20838;-69
2024/01/17 10:58:52;;;;;;;0.50;0.50;;;;;;;12.06;44.64;96943.88;5078516;28;20442;-66
2024/01/17 11:01:35;;;;;;;0.50;0.50;;;;;;;12.09;44.32;96943.13;5079872;28;20040;-69
2024/01/17 11:04:41;;;;;;;0.60;0.60;;;;;;;11.44;44.84;96900.38;5084266;28;20048;-66
2024/01/17 11:07:08;;;;;;;0.57;0.57;;;;;;;11.23;44.93;96864.88;5085070;28;20518;-68
2024/01/17 11:09:36;;;;;;;0.60;0.60;;;;;;;10.64;46.06;96829.72;5083761;28;20070;-66
2024/01/17 11:12:05;;;;;;;0.50;0.50;;;;;;;10.75;46.05;96790.28;5084561;28;20056;-67
2024/01/17 11:14:33;;;;;;;0.50;0.50;;;;;;;11.70;45.70;96886.41;5082760;28;20072;-66
2024/01/17 11:17:04;;;;;;;0.50;0.50;;;;;;;12.01;43.66;96908.91;5081482;28;20056;-68
2024/01/17 11:19:36;;;;;;;0.57;0.57;;;;;;;11.33;43.96;96858.66;5081556;28;20052;-68
2024/01/17 11:22:03;;;;;;;0.50;0.50;;;;;;;11.67;43.81;96909.38;5083340;28;20044;-67
2024/01/17 11:24:36;;;;;;;0.60;0.60;;;;;;;11.77;44.05;96903.13;5070636;28;20519;-65
2024/01/17 11:27:09;;;;;;;0.52;0.52;;;;;;;11.97;44.07;96896.19;5063625;28;20432;-67
2024/01/17 11:29:51;;;;;;;0.60;0.60;;;;;;;11.93;43.39;96895.38;5064354;28;20139;-68
2024/01/17 11:32:28;;;;;;;0.60;0.60;;;;;;;12.18;42.89;96891.63;5062515;28;20058;-66
2024/01/17 11:34:55;;;;;;;0.55;0.55;;;;;;;12.20;43.07;96888.47;5063953;28;20546;-66
2024/01/17 11:37:38;;;;;;;0.57;0.57;;;;;;;11.65;42.17;96832.06;5062735;28;20052;-67
2024/01/17 11:40:07;;;;;;;0.60;0.60;;;;;;;11.46;42.92;96859.19;5062755;28;20075;-65
2024/01/17 11:42:34;;;;;;;0.50;0.50;;;;;;;11.51;43.42;96894.88;5063813;28;20055;-67